sensor_id;sensor_type;location;lat;lon;timestamp;P1;durP1;ratioP1;P2;durP2;ratioP2
33716;SDS011;20046;50.746;7.072;2022-12-07T00:01:07;62.50;;;28.08;;
33716;SDS011;20046;50.746;7.072;2022-12-07T00:03:35;60.03;;;27.77;;
33716;SDS011;20046;50.746;7.072;2022-12-07T00:06:02;64.25;;;28.90;;
33716;SDS011;20046;50.746;7.072;2022-12-07T00:08:28;61.10;;;27.70;;
33716;SDS011;20046;50.746;7.072;2022-12-07T00:10:54;68.20;;;29.77;;
33716;SDS011;20046;50.746;7.072;2022-12-07T00:13:20;63.83;;;29.52;;
33716;SDS011;20046;50.746;7.072;2022-12-07T00:15:46;70.03;;;30.30;;
33716;SDS011;20046;50.746;7.072;2022-12-07T00:18:11;60.55;;;28.95;;
33716;SDS011;20046;50.746;7.072;2022-12-07T00:20:37;64.25;;;29.55;;
33716;SDS011;20046;50.746;7.072;2022-12-07T00:23:02;64.93;;;30.42;;
33716;SDS011;20046;50.746;7.072;2022-12-07T00:25:28;65.05;;;30.13;;
33716;SDS011;20046;50.746;7.072;2022-12-07T00:27:55;65.07;;;30.50;;
33716;SDS011;20046;50.746;7.072;2022-12-07T00:30:21;70.07;;;31.75;;
33716;SDS011;20046;50.746;7.072;2022-12-07T00:32:47;70.85;;;33.42;;
33716;SDS011;20046;50.746;7.072;2022-12-07T00:35:13;68.20;;;31.38;;
33716;SDS011;20046;50.746;7.072;2022-12-07T00:37:39;67.82;;;31.70;;
33716;SDS011;20046;50.746;7.072;2022-12-07T00:40:04;72.18;;;31.60;;
33716;SDS011;20046;50.746;7.072;2022-12-07T00:42:31;72.20;;;31.95;;
33716;SDS011;20046;50.746;7.072;2022-12-07T00:44:56;69.53;;;32.03;;
33716;SDS011;20046;50.746;7.072;2022-12-07T00:47:22;66.60;;;31.88;;
33716;SDS011;20046;50.746;7.072;2022-12-07T00:49:47;67.13;;;31.27;;
33716;SDS011;20046;50.746;7.072;2022-12-07T00:52:13;67.72;;;32.22;;
33716;SDS011;20046;50.746;7.072;2022-12-07T00:54:39;69.45;;;32.40;;
33716;SDS011;20046;50.746;7.072;2022-12-07T00:57:05;58.97;;;28.83;;
33716;SDS011;20046;50.746;7.072;2022-12-07T00:59:30;66.90;;;32.65;;
33716;SDS011;20046;50.746;7.072;2022-12-07T01:01:56;67.50;;;31.65;;
33716;SDS011;20046;50.746;7.072;2022-12-07T01:04:21;62.63;;;30.92;;
33716;SDS011;20046;50.746;7.072;2022-12-07T01:06:47;64.57;;;31.75;;
33716;SDS011;20046;50.746;7.072;2022-12-07T01:09:12;62.75;;;32.60;;
33716;SDS011;20046;50.746;7.072;2022-12-07T01:11:38;70.38;;;31.73;;
33716;SDS011;20046;50.746;7.072;2022-12-07T01:14:04;64.03;;;31.83;;
33716;SDS011;20046;50.746;7.072;2022-12-07T01:16:30;66.30;;;32.65;;
33716;SDS011;20046;50.746;7.072;2022-12-07T01:18:57;69.00;;;32.45;;
33716;SDS011;20046;50.746;7.072;2022-12-07T01:21:27;67.07;;;32.92;;
33716;SDS011;20046;50.746;7.072;2022-12-07T01:23:56;62.05;;;32.50;;
33716;SDS011;20046;50.746;7.072;2022-12-07T01:26:23;65.82;;;32.13;;
33716;SDS011;20046;50.746;7.072;2022-12-07T01:28:50;66.65;;;31.80;;
33716;SDS011;20046;50.746;7.072;2022-12-07T01:31:17;64.55;;;31.83;;
33716;SDS011;20046;50.746;7.072;2022-12-07T01:33:45;67.35;;;33.38;;
33716;SDS011;20046;50.746;7.072;2022-12-07T01:38:41;69.70;;;32.53;;
33716;SDS011;20046;50.746;7.072;2022-12-07T01:41:08;68.13;;;31.65;;
33716;SDS011;20046;50.746;7.072;2022-12-07T01:43:34;67.63;;;33.15;;
33716;SDS011;20046;50.746;7.072;2022-12-07T01:46:00;63.72;;;31.77;;
33716;SDS011;20046;50.746;7.072;2022-12-07T01:48:27;64.60;;;31.05;;
33716;SDS011;20046;50.746;7.072;2022-12-07T01:51:06;70.80;;;32.35;;
33716;SDS011;20046;50.746;7.072;2022-12-07T01:53:35;63.92;;;31.48;;
33716;SDS011;20046;50.746;7.072;2022-12-07T01:56:03;64.25;;;32.08;;
33716;SDS011;20046;50.746;7.072;2022-12-07T01:58:30;67.72;;;32.92;;
33716;SDS011;20046;50.746;7.072;2022-12-07T02:00:56;65.35;;;32.20;;
33716;SDS011;20046;50.746;7.072;2022-12-07T02:03:22;64.80;;;33.03;;
33716;SDS011;20046;50.746;7.072;2022-12-07T02:05:56;60.72;;;31.63;;
33716;SDS011;20046;50.746;7.072;2022-12-07T02:08:24;67.70;;;33.17;;
33716;SDS011;20046;50.746;7.072;2022-12-07T02:10:50;69.72;;;33.30;;
33716;SDS011;20046;50.746;7.072;2022-12-07T02:13:16;71.70;;;32.80;;
33716;SDS011;20046;50.746;7.072;2022-12-07T02:15:51;68.97;;;32.60;;
33716;SDS011;20046;50.746;7.072;2022-12-07T02:29:31;64.53;;;32.35;;
33716;SDS011;20046;50.746;7.072;2022-12-07T02:32:13;72.95;;;34.30;;
33716;SDS011;20046;50.746;7.072;2022-12-07T02:40:19;67.40;;;33.75;;
33716;SDS011;20046;50.746;7.072;2022-12-07T02:42:58;69.43;;;33.20;;
33716;SDS011;20046;50.746;7.072;2022-12-07T02:45:31;70.60;;;33.35;;
33716;SDS011;20046;50.746;7.072;2022-12-07T02:47:59;60.80;;;32.55;;
33716;SDS011;20046;50.746;7.072;2022-12-07T02:50:27;69.03;;;34.22;;
33716;SDS011;20046;50.746;7.072;2022-12-07T02:52:53;67.30;;;32.60;;
33716;SDS011;20046;50.746;7.072;2022-12-07T02:55:19;70.10;;;34.10;;
33716;SDS011;20046;50.746;7.072;2022-12-07T02:57:54;70.75;;;34.10;;
33716;SDS011;20046;50.746;7.072;2022-12-07T03:01:24;68.97;;;33.85;;
33716;SDS011;20046;50.746;7.072;2022-12-07T03:03:36;68.20;;;33.63;;
33716;SDS011;20046;50.746;7.072;2022-12-07T03:06:06;61.75;;;32.03;;
33716;SDS011;20046;50.746;7.072;2022-12-07T03:08:47;63.65;;;31.30;;
33716;SDS011;20046;50.746;7.072;2022-12-07T03:11:41;66.40;;;32.13;;
33716;SDS011;20046;50.746;7.072;2022-12-07T03:14:18;68.25;;;33.08;;
33716;SDS011;20046;50.746;7.072;2022-12-07T03:16:52;65.63;;;33.10;;
33716;SDS011;20046;50.746;7.072;2022-12-07T03:19:23;66.65;;;32.05;;
33716;SDS011;20046;50.746;7.072;2022-12-07T03:21:55;70.57;;;33.97;;
33716;SDS011;20046;50.746;7.072;2022-12-07T03:24:26;63.38;;;32.58;;
33716;SDS011;20046;50.746;7.072;2022-12-07T03:26:56;69.57;;;33.00;;
33716;SDS011;20046;50.746;7.072;2022-12-07T03:29:32;67.20;;;32.03;;
33716;SDS011;20046;50.746;7.072;2022-12-07T03:32:49;62.13;;;32.90;;
33716;SDS011;20046;50.746;7.072;2022-12-07T03:37:23;64.72;;;31.25;;
33716;SDS011;20046;50.746;7.072;2022-12-07T03:42:47;71.40;;;34.97;;
33716;SDS011;20046;50.746;7.072;2022-12-07T03:45:13;71.22;;;34.10;;
33716;SDS011;20046;50.746;7.072;2022-12-07T03:47:47;63.65;;;32.35;;
33716;SDS011;20046;50.746;7.072;2022-12-07T03:53:03;65.47;;;32.67;;
33716;SDS011;20046;50.746;7.072;2022-12-07T03:55:37;65.18;;;32.53;;
33716;SDS011;20046;50.746;7.072;2022-12-07T03:58:09;65.13;;;32.20;;
33716;SDS011;20046;50.746;7.072;2022-12-07T04:00:41;66.20;;;33.33;;
33716;SDS011;20046;50.746;7.072;2022-12-07T04:03:08;69.68;;;33.15;;
33716;SDS011;20046;50.746;7.072;2022-12-07T04:05:33;61.08;;;31.35;;
33716;SDS011;20046;50.746;7.072;2022-12-07T04:08:00;71.28;;;32.85;;
33716;SDS011;20046;50.746;7.072;2022-12-07T04:10:25;60.05;;;31.38;;
33716;SDS011;20046;50.746;7.072;2022-12-07T04:12:51;66.93;;;32.78;;
33716;SDS011;20046;50.746;7.072;2022-12-07T04:15:17;65.10;;;33.72;;
33716;SDS011;20046;50.746;7.072;2022-12-07T04:17:42;63.80;;;32.38;;
33716;SDS011;20046;50.746;7.072;2022-12-07T04:20:08;69.07;;;34.33;;
33716;SDS011;20046;50.746;7.072;2022-12-07T04:22:34;64.75;;;34.05;;
33716;SDS011;20046;50.746;7.072;2022-12-07T04:25:00;61.72;;;32.92;;
33716;SDS011;20046;50.746;7.072;2022-12-07T04:27:25;70.80;;;35.53;;
33716;SDS011;20046;50.746;7.072;2022-12-07T04:29:51;73.35;;;33.33;;
33716;SDS011;20046;50.746;7.072;2022-12-07T04:32:16;66.88;;;32.85;;
33716;SDS011;20046;50.746;7.072;2022-12-07T04:34:42;74.38;;;35.55;;
33716;SDS011;20046;50.746;7.072;2022-12-07T04:37:07;66.38;;;32.90;;
33716;SDS011;20046;50.746;7.072;2022-12-07T04:39:33;68.97;;;33.97;;
33716;SDS011;20046;50.746;7.072;2022-12-07T04:41:59;76.50;;;33.78;;
33716;SDS011;20046;50.746;7.072;2022-12-07T04:44:26;67.70;;;32.70;;
33716;SDS011;20046;50.746;7.072;2022-12-07T04:46:55;67.95;;;32.47;;
33716;SDS011;20046;50.746;7.072;2022-12-07T04:49:22;72.53;;;32.25;;
33716;SDS011;20046;50.746;7.072;2022-12-07T04:51:48;70.63;;;33.08;;
33716;SDS011;20046;50.746;7.072;2022-12-07T04:54:14;72.45;;;34.63;;
33716;SDS011;20046;50.746;7.072;2022-12-07T04:56:40;63.35;;;31.42;;
33716;SDS011;20046;50.746;7.072;2022-12-07T04:59:06;67.75;;;33.20;;
33716;SDS011;20046;50.746;7.072;2022-12-07T05:01:33;69.35;;;33.08;;
33716;SDS011;20046;50.746;7.072;2022-12-07T05:03:59;66.70;;;33.83;;
33716;SDS011;20046;50.746;7.072;2022-12-07T05:06:24;68.10;;;32.00;;
33716;SDS011;20046;50.746;7.072;2022-12-07T05:08:50;65.18;;;31.75;;
33716;SDS011;20046;50.746;7.072;2022-12-07T05:11:16;67.72;;;31.30;;
33716;SDS011;20046;50.746;7.072;2022-12-07T05:14:01;64.85;;;31.40;;
33716;SDS011;20046;50.746;7.072;2022-12-07T05:16:28;68.30;;;30.80;;
33716;SDS011;20046;50.746;7.072;2022-12-07T05:18:53;71.85;;;32.38;;
33716;SDS011;20046;50.746;7.072;2022-12-07T05:21:19;65.38;;;30.98;;
33716;SDS011;20046;50.746;7.072;2022-12-07T05:23:44;64.03;;;31.38;;
33716;SDS011;20046;50.746;7.072;2022-12-07T05:26:10;63.92;;;30.77;;
33716;SDS011;20046;50.746;7.072;2022-12-07T05:28:36;64.97;;;30.48;;
33716;SDS011;20046;50.746;7.072;2022-12-07T05:31:01;71.22;;;32.17;;
33716;SDS011;20046;50.746;7.072;2022-12-07T05:33:27;63.03;;;30.67;;
33716;SDS011;20046;50.746;7.072;2022-12-07T05:35:53;63.05;;;30.70;;
33716;SDS011;20046;50.746;7.072;2022-12-07T05:38:18;75.18;;;31.98;;
33716;SDS011;20046;50.746;7.072;2022-12-07T05:40:44;67.70;;;29.83;;
33716;SDS011;20046;50.746;7.072;2022-12-07T05:43:09;71.10;;;31.40;;
33716;SDS011;20046;50.746;7.072;2022-12-07T05:45:35;73.95;;;32.60;;
33716;SDS011;20046;50.746;7.072;2022-12-07T05:48:00;72.57;;;30.08;;
33716;SDS011;20046;50.746;7.072;2022-12-07T05:50:26;65.13;;;30.33;;
33716;SDS011;20046;50.746;7.072;2022-12-07T05:52:52;62.83;;;29.85;;
33716;SDS011;20046;50.746;7.072;2022-12-07T05:55:18;62.50;;;29.70;;
33716;SDS011;20046;50.746;7.072;2022-12-07T05:57:44;71.25;;;30.98;;
33716;SDS011;20046;50.746;7.072;2022-12-07T06:00:29;67.20;;;30.75;;
33716;SDS011;20046;50.746;7.072;2022-12-07T06:02:55;64.80;;;29.77;;
33716;SDS011;20046;50.746;7.072;2022-12-07T06:05:20;68.60;;;30.08;;
33716;SDS011;20046;50.746;7.072;2022-12-07T06:07:46;66.60;;;29.55;;
33716;SDS011;20046;50.746;7.072;2022-12-07T06:10:11;70.88;;;31.17;;
33716;SDS011;20046;50.746;7.072;2022-12-07T06:12:37;64.82;;;28.33;;
33716;SDS011;20046;50.746;7.072;2022-12-07T06:15:04;67.78;;;29.02;;
33716;SDS011;20046;50.746;7.072;2022-12-07T06:17:31;74.93;;;30.45;;
33716;SDS011;20046;50.746;7.072;2022-12-07T06:19:57;72.53;;;30.75;;
33716;SDS011;20046;50.746;7.072;2022-12-07T06:22:22;67.75;;;29.42;;
33716;SDS011;20046;50.746;7.072;2022-12-07T06:24:48;71.13;;;31.17;;
33716;SDS011;20046;50.746;7.072;2022-12-07T06:27:14;71.20;;;30.75;;
33716;SDS011;20046;50.746;7.072;2022-12-07T06:29:39;72.82;;;30.88;;
33716;SDS011;20046;50.746;7.072;2022-12-07T06:32:05;68.22;;;29.25;;
33716;SDS011;20046;50.746;7.072;2022-12-07T06:34:31;58.55;;;29.38;;
33716;SDS011;20046;50.746;7.072;2022-12-07T06:36:56;67.18;;;29.77;;
33716;SDS011;20046;50.746;7.072;2022-12-07T06:39:23;63.03;;;29.17;;
33716;SDS011;20046;50.746;7.072;2022-12-07T06:41:50;67.15;;;29.73;;
33716;SDS011;20046;50.746;7.072;2022-12-07T06:44:20;68.80;;;31.88;;
33716;SDS011;20046;50.746;7.072;2022-12-07T06:46:46;62.13;;;29.08;;
33716;SDS011;20046;50.746;7.072;2022-12-07T06:49:12;68.05;;;28.35;;
33716;SDS011;20046;50.746;7.072;2022-12-07T06:51:38;78.07;;;31.23;;
33716;SDS011;20046;50.746;7.072;2022-12-07T06:54:06;63.88;;;29.30;;
33716;SDS011;20046;50.746;7.072;2022-12-07T06:56:35;66.30;;;28.58;;
33716;SDS011;20046;50.746;7.072;2022-12-07T06:59:02;62.75;;;29.48;;
33716;SDS011;20046;50.746;7.072;2022-12-07T07:01:28;61.42;;;28.80;;
33716;SDS011;20046;50.746;7.072;2022-12-07T07:03:53;65.63;;;29.63;;
33716;SDS011;20046;50.746;7.072;2022-12-07T07:06:19;68.78;;;30.42;;
33716;SDS011;20046;50.746;7.072;2022-12-07T07:08:45;71.22;;;29.42;;
33716;SDS011;20046;50.746;7.072;2022-12-07T07:11:10;75.22;;;30.50;;
33716;SDS011;20046;50.746;7.072;2022-12-07T07:13:36;61.25;;;27.27;;
33716;SDS011;20046;50.746;7.072;2022-12-07T07:16:02;62.25;;;26.35;;
33716;SDS011;20046;50.746;7.072;2022-12-07T07:18:28;56.80;;;25.75;;
33716;SDS011;20046;50.746;7.072;2022-12-07T07:20:54;62.90;;;24.45;;
33716;SDS011;20046;50.746;7.072;2022-12-07T07:23:20;56.10;;;23.70;;
33716;SDS011;20046;50.746;7.072;2022-12-07T07:25:46;59.38;;;23.60;;
33716;SDS011;20046;50.746;7.072;2022-12-07T07:28:13;56.15;;;23.17;;
33716;SDS011;20046;50.746;7.072;2022-12-07T07:30:38;49.20;;;23.38;;
33716;SDS011;20046;50.746;7.072;2022-12-07T07:33:04;59.65;;;23.13;;
33716;SDS011;20046;50.746;7.072;2022-12-07T07:35:31;52.83;;;23.17;;
33716;SDS011;20046;50.746;7.072;2022-12-07T07:37:58;50.15;;;22.85;;
33716;SDS011;20046;50.746;7.072;2022-12-07T07:40:24;53.83;;;24.05;;
33716;SDS011;20046;50.746;7.072;2022-12-07T07:42:51;62.47;;;23.52;;
33716;SDS011;20046;50.746;7.072;2022-12-07T07:45:18;58.28;;;26.02;;
33716;SDS011;20046;50.746;7.072;2022-12-07T07:47:46;56.60;;;25.42;;
33716;SDS011;20046;50.746;7.072;2022-12-07T07:50:11;64.05;;;25.48;;
33716;SDS011;20046;50.746;7.072;2022-12-07T07:52:37;57.85;;;26.67;;
33716;SDS011;20046;50.746;7.072;2022-12-07T07:55:03;54.00;;;26.20;;
33716;SDS011;20046;50.746;7.072;2022-12-07T07:57:29;64.25;;;28.92;;
33716;SDS011;20046;50.746;7.072;2022-12-07T07:59:55;64.65;;;26.55;;
33716;SDS011;20046;50.746;7.072;2022-12-07T08:02:21;65.22;;;27.45;;
33716;SDS011;20046;50.746;7.072;2022-12-07T08:04:47;70.82;;;29.48;;
33716;SDS011;20046;50.746;7.072;2022-12-07T08:07:13;66.25;;;28.35;;
33716;SDS011;20046;50.746;7.072;2022-12-07T08:09:40;65.88;;;27.90;;
33716;SDS011;20046;50.746;7.072;2022-12-07T08:12:05;66.22;;;28.98;;
33716;SDS011;20046;50.746;7.072;2022-12-07T08:14:31;61.67;;;27.83;;
33716;SDS011;20046;50.746;7.072;2022-12-07T08:16:57;67.43;;;27.42;;
33716;SDS011;20046;50.746;7.072;2022-12-07T08:19:23;68.90;;;27.48;;
33716;SDS011;20046;50.746;7.072;2022-12-07T08:21:49;59.25;;;26.13;;
33716;SDS011;20046;50.746;7.072;2022-12-07T08:24:14;61.45;;;27.45;;
33716;SDS011;20046;50.746;7.072;2022-12-07T08:26:41;59.42;;;26.40;;
33716;SDS011;20046;50.746;7.072;2022-12-07T08:29:06;62.10;;;26.55;;
33716;SDS011;20046;50.746;7.072;2022-12-07T08:31:32;63.00;;;27.38;;
33716;SDS011;20046;50.746;7.072;2022-12-07T08:33:58;58.45;;;25.88;;
33716;SDS011;20046;50.746;7.072;2022-12-07T08:36:23;57.90;;;26.63;;
33716;SDS011;20046;50.746;7.072;2022-12-07T08:38:49;60.15;;;26.75;;
33716;SDS011;20046;50.746;7.072;2022-12-07T08:41:15;68.43;;;28.20;;
33716;SDS011;20046;50.746;7.072;2022-12-07T08:43:41;64.40;;;26.15;;
33716;SDS011;20046;50.746;7.072;2022-12-07T08:46:08;57.42;;;25.92;;
33716;SDS011;20046;50.746;7.072;2022-12-07T08:48:46;57.80;;;23.80;;
33716;SDS011;20046;50.746;7.072;2022-12-07T08:51:42;57.15;;;26.00;;
33716;SDS011;20046;50.746;7.072;2022-12-07T08:54:09;52.72;;;23.98;;
33716;SDS011;20046;50.746;7.072;2022-12-07T08:56:38;51.95;;;25.65;;
33716;SDS011;20046;50.746;7.072;2022-12-07T08:59:04;46.75;;;23.83;;
33716;SDS011;20046;50.746;7.072;2022-12-07T09:01:30;46.20;;;22.73;;
33716;SDS011;20046;50.746;7.072;2022-12-07T09:03:56;50.47;;;23.17;;
33716;SDS011;20046;50.746;7.072;2022-12-07T09:06:22;51.58;;;21.88;;
33716;SDS011;20046;50.746;7.072;2022-12-07T09:08:51;45.35;;;21.10;;
33716;SDS011;20046;50.746;7.072;2022-12-07T09:11:20;43.58;;;20.92;;
33716;SDS011;20046;50.746;7.072;2022-12-07T09:13:46;48.67;;;21.88;;
33716;SDS011;20046;50.746;7.072;2022-12-07T09:16:11;49.25;;;21.27;;
33716;SDS011;20046;50.746;7.072;2022-12-07T09:18:37;48.90;;;21.70;;
33716;SDS011;20046;50.746;7.072;2022-12-07T09:21:03;40.20;;;20.08;;
33716;SDS011;20046;50.746;7.072;2022-12-07T09:23:29;45.05;;;21.63;;
33716;SDS011;20046;50.746;7.072;2022-12-07T09:25:55;46.30;;;20.30;;
33716;SDS011;20046;50.746;7.072;2022-12-07T09:28:25;38.22;;;18.75;;
33716;SDS011;20046;50.746;7.072;2022-12-07T09:30:51;37.72;;;18.30;;
33716;SDS011;20046;50.746;7.072;2022-12-07T09:33:16;39.53;;;18.80;;
33716;SDS011;20046;50.746;7.072;2022-12-07T09:35:45;35.75;;;17.60;;
33716;SDS011;20046;50.746;7.072;2022-12-07T09:38:11;37.65;;;17.17;;
33716;SDS011;20046;50.746;7.072;2022-12-07T09:40:38;38.10;;;16.63;;
33716;SDS011;20046;50.746;7.072;2022-12-07T09:43:03;41.10;;;18.67;;
33716;SDS011;20046;50.746;7.072;2022-12-07T09:45:31;32.35;;;16.55;;
33716;SDS011;20046;50.746;7.072;2022-12-07T09:47:59;38.42;;;17.85;;
33716;SDS011;20046;50.746;7.072;2022-12-07T09:50:26;37.28;;;17.17;;
33716;SDS011;20046;50.746;7.072;2022-12-07T09:52:53;39.40;;;17.77;;
33716;SDS011;20046;50.746;7.072;2022-12-07T09:55:27;40.05;;;16.98;;
33716;SDS011;20046;50.746;7.072;2022-12-07T09:57:54;38.22;;;17.23;;
33716;SDS011;20046;50.746;7.072;2022-12-07T10:00:22;37.55;;;16.90;;
33716;SDS011;20046;50.746;7.072;2022-12-07T10:02:52;32.30;;;14.88;;
33716;SDS011;20046;50.746;7.072;2022-12-07T10:05:26;32.63;;;15.23;;
33716;SDS011;20046;50.746;7.072;2022-12-07T10:08:20;29.30;;;14.23;;
33716;SDS011;20046;50.746;7.072;2022-12-07T10:10:46;39.22;;;14.93;;
33716;SDS011;20046;50.746;7.072;2022-12-07T10:13:20;28.67;;;14.48;;
33716;SDS011;20046;50.746;7.072;2022-12-07T10:15:54;25.77;;;13.38;;
33716;SDS011;20046;50.746;7.072;2022-12-07T10:18:28;30.25;;;13.68;;
33716;SDS011;20046;50.746;7.072;2022-12-07T10:23:39;20.25;;;11.23;;
33716;SDS011;20046;50.746;7.072;2022-12-07T10:26:40;32.83;;;13.43;;
33716;SDS011;20046;50.746;7.072;2022-12-07T10:29:21;25.90;;;11.82;;
33716;SDS011;20046;50.746;7.072;2022-12-07T10:31:49;22.75;;;11.85;;
33716;SDS011;20046;50.746;7.072;2022-12-07T10:37:06;25.40;;;11.32;;
33716;SDS011;20046;50.746;7.072;2022-12-07T10:39:48;23.95;;;11.07;;
33716;SDS011;20046;50.746;7.072;2022-12-07T10:44:43;25.67;;;12.52;;
33716;SDS011;20046;50.746;7.072;2022-12-07T11:03:46;18.50;;;9.40;;
33716;SDS011;20046;50.746;7.072;2022-12-07T11:06:30;19.63;;;9.65;;
33716;SDS011;20046;50.746;7.072;2022-12-07T11:09:20;24.23;;;11.07;;
33716;SDS011;20046;50.746;7.072;2022-12-07T11:11:56;19.40;;;9.15;;
33716;SDS011;20046;50.746;7.072;2022-12-07T11:14:44;25.17;;;10.43;;
33716;SDS011;20046;50.746;7.072;2022-12-07T11:36:54;17.15;;;7.10;;
33716;SDS011;20046;50.746;7.072;2022-12-07T11:41:47;15.43;;;6.18;;
33716;SDS011;20046;50.746;7.072;2022-12-07T11:44:56;14.35;;;5.45;;
33716;SDS011;20046;50.746;7.072;2022-12-07T11:58:04;14.40;;;5.90;;
33716;SDS011;20046;50.746;7.072;2022-12-07T12:00:46;13.60;;;5.60;;
33716;SDS011;20046;50.746;7.072;2022-12-07T12:03:15;11.23;;;5.53;;
33716;SDS011;20046;50.746;7.072;2022-12-07T12:05:48;13.93;;;5.72;;
33716;SDS011;20046;50.746;7.072;2022-12-07T12:08:16;12.30;;;5.68;;
33716;SDS011;20046;50.746;7.072;2022-12-07T12:13:28;13.57;;;5.85;;
33716;SDS011;20046;50.746;7.072;2022-12-07T12:21:33;18.17;;;6.40;;
33716;SDS011;20046;50.746;7.072;2022-12-07T12:24:00;13.20;;;6.28;;
33716;SDS011;20046;50.746;7.072;2022-12-07T12:26:31;12.90;;;5.70;;
33716;SDS011;20046;50.746;7.072;2022-12-07T12:29:04;12.98;;;6.55;;
33716;SDS011;20046;50.746;7.072;2022-12-07T12:34:01;14.57;;;6.05;;
33716;SDS011;20046;50.746;7.072;2022-12-07T12:36:46;16.42;;;6.30;;
33716;SDS011;20046;50.746;7.072;2022-12-07T12:39:16;15.80;;;7.10;;
33716;SDS011;20046;50.746;7.072;2022-12-07T12:49:42;15.98;;;6.60;;
33716;SDS011;20046;50.746;7.072;2022-12-07T12:57:34;17.20;;;6.97;;
33716;SDS011;20046;50.746;7.072;2022-12-07T13:00:15;12.63;;;6.43;;
33716;SDS011;20046;50.746;7.072;2022-12-07T13:05:26;22.40;;;6.72;;
33716;SDS011;20046;50.746;7.072;2022-12-07T13:08:00;18.45;;;7.80;;
33716;SDS011;20046;50.746;7.072;2022-12-07T13:10:45;19.02;;;6.97;;
33716;SDS011;20046;50.746;7.072;2022-12-07T13:18:39;18.60;;;8.05;;
33716;SDS011;20046;50.746;7.072;2022-12-07T13:28:47;20.80;;;8.63;;
33716;SDS011;20046;50.746;7.072;2022-12-07T13:34:03;21.92;;;9.23;;
33716;SDS011;20046;50.746;7.072;2022-12-07T13:36:31;19.52;;;9.20;;
33716;SDS011;20046;50.746;7.072;2022-12-07T13:39:10;21.73;;;9.45;;
33716;SDS011;20046;50.746;7.072;2022-12-07T13:41:41;23.08;;;9.77;;
33716;SDS011;20046;50.746;7.072;2022-12-07T13:44:12;20.10;;;10.15;;
33716;SDS011;20046;50.746;7.072;2022-12-07T13:46:44;22.38;;;9.77;;
33716;SDS011;20046;50.746;7.072;2022-12-07T13:49:21;25.98;;;9.50;;
33716;SDS011;20046;50.746;7.072;2022-12-07T13:52:11;27.80;;;9.50;;
33716;SDS011;20046;50.746;7.072;2022-12-07T13:55:01;22.38;;;8.85;;
33716;SDS011;20046;50.746;7.072;2022-12-07T13:57:48;27.83;;;9.65;;
33716;SDS011;20046;50.746;7.072;2022-12-07T14:00:17;18.30;;;8.65;;
33716;SDS011;20046;50.746;7.072;2022-12-07T14:03:44;19.95;;;8.88;;
33716;SDS011;20046;50.746;7.072;2022-12-07T14:05:39;18.08;;;8.25;;
33716;SDS011;20046;50.746;7.072;2022-12-07T14:10:41;17.08;;;7.75;;
33716;SDS011;20046;50.746;7.072;2022-12-07T14:16:06;15.60;;;6.43;;
33716;SDS011;20046;50.746;7.072;2022-12-07T14:18:43;13.38;;;6.07;;
33716;SDS011;20046;50.746;7.072;2022-12-07T14:23:35;17.05;;;6.60;;
33716;SDS011;20046;50.746;7.072;2022-12-07T14:28:38;15.25;;;5.20;;
33716;SDS011;20046;50.746;7.072;2022-12-07T14:31:08;12.27;;;4.57;;
33716;SDS011;20046;50.746;7.072;2022-12-07T14:33:37;6.90;;;3.60;;
33716;SDS011;20046;50.746;7.072;2022-12-07T14:36:04;12.65;;;3.53;;
33716;SDS011;20046;50.746;7.072;2022-12-07T14:38:30;12.88;;;3.70;;
33716;SDS011;20046;50.746;7.072;2022-12-07T14:40:55;8.50;;;3.58;;
33716;SDS011;20046;50.746;7.072;2022-12-07T14:43:44;6.78;;;3.10;;
33716;SDS011;20046;50.746;7.072;2022-12-07T14:46:10;10.35;;;4.03;;
33716;SDS011;20046;50.746;7.072;2022-12-07T14:48:36;11.85;;;4.53;;
33716;SDS011;20046;50.746;7.072;2022-12-07T14:51:01;7.85;;;4.53;;
33716;SDS011;20046;50.746;7.072;2022-12-07T14:53:29;13.55;;;4.88;;
33716;SDS011;20046;50.746;7.072;2022-12-07T14:56:00;10.13;;;5.43;;
33716;SDS011;20046;50.746;7.072;2022-12-07T14:58:26;7.60;;;4.90;;
33716;SDS011;20046;50.746;7.072;2022-12-07T15:00:52;15.85;;;5.38;;
33716;SDS011;20046;50.746;7.072;2022-12-07T15:03:18;13.73;;;6.22;;
33716;SDS011;20046;50.746;7.072;2022-12-07T15:05:43;8.65;;;5.68;;
33716;SDS011;20046;50.746;7.072;2022-12-07T15:08:10;15.80;;;6.70;;
33716;SDS011;20046;50.746;7.072;2022-12-07T15:10:37;18.50;;;8.38;;
33716;SDS011;20046;50.746;7.072;2022-12-07T15:13:05;13.50;;;7.40;;
33716;SDS011;20046;50.746;7.072;2022-12-07T15:15:50;14.98;;;7.40;;
33716;SDS011;20046;50.746;7.072;2022-12-07T15:18:17;18.90;;;7.95;;
33716;SDS011;20046;50.746;7.072;2022-12-07T15:20:44;21.13;;;9.35;;
33716;SDS011;20046;50.746;7.072;2022-12-07T15:23:11;17.73;;;9.25;;
33716;SDS011;20046;50.746;7.072;2022-12-07T15:25:40;21.90;;;9.93;;
33716;SDS011;20046;50.746;7.072;2022-12-07T15:28:09;18.67;;;8.98;;
33716;SDS011;20046;50.746;7.072;2022-12-07T15:30:36;14.77;;;8.82;;
33716;SDS011;20046;50.746;7.072;2022-12-07T15:33:02;20.00;;;8.52;;
33716;SDS011;20046;50.746;7.072;2022-12-07T15:35:28;20.88;;;9.10;;
33716;SDS011;20046;50.746;7.072;2022-12-07T15:37:54;18.88;;;9.48;;
33716;SDS011;20046;50.746;7.072;2022-12-07T15:40:19;26.45;;;10.13;;
33716;SDS011;20046;50.746;7.072;2022-12-07T15:42:45;27.27;;;11.15;;
33716;SDS011;20046;50.746;7.072;2022-12-07T15:45:10;25.45;;;10.80;;
33716;SDS011;20046;50.746;7.072;2022-12-07T15:47:39;23.83;;;11.63;;
33716;SDS011;20046;50.746;7.072;2022-12-07T15:50:07;23.75;;;10.60;;
33716;SDS011;20046;50.746;7.072;2022-12-07T15:52:35;21.60;;;10.43;;
33716;SDS011;20046;50.746;7.072;2022-12-07T15:55:01;22.30;;;10.07;;
33716;SDS011;20046;50.746;7.072;2022-12-07T15:57:28;25.55;;;10.38;;
33716;SDS011;20046;50.746;7.072;2022-12-07T15:59:58;22.25;;;9.65;;
33716;SDS011;20046;50.746;7.072;2022-12-07T16:02:24;20.40;;;11.25;;
33716;SDS011;20046;50.746;7.072;2022-12-07T16:04:50;25.55;;;11.10;;
33716;SDS011;20046;50.746;7.072;2022-12-07T16:07:16;24.05;;;11.52;;
33716;SDS011;20046;50.746;7.072;2022-12-07T16:09:43;29.63;;;13.27;;
33716;SDS011;20046;50.746;7.072;2022-12-07T16:12:10;30.08;;;11.63;;
33716;SDS011;20046;50.746;7.072;2022-12-07T16:14:36;32.17;;;12.57;;
33716;SDS011;20046;50.746;7.072;2022-12-07T16:17:02;23.83;;;11.60;;
33716;SDS011;20046;50.746;7.072;2022-12-07T16:19:29;21.95;;;10.95;;
33716;SDS011;20046;50.746;7.072;2022-12-07T16:21:55;26.75;;;10.35;;
33716;SDS011;20046;50.746;7.072;2022-12-07T16:24:21;24.13;;;10.57;;
33716;SDS011;20046;50.746;7.072;2022-12-07T16:26:47;22.15;;;10.40;;
33716;SDS011;20046;50.746;7.072;2022-12-07T16:29:13;25.52;;;11.30;;
33716;SDS011;20046;50.746;7.072;2022-12-07T16:31:39;28.80;;;11.45;;
33716;SDS011;20046;50.746;7.072;2022-12-07T16:34:05;17.60;;;10.57;;
33716;SDS011;20046;50.746;7.072;2022-12-07T16:36:32;22.83;;;11.27;;
33716;SDS011;20046;50.746;7.072;2022-12-07T16:38:58;22.38;;;10.77;;
33716;SDS011;20046;50.746;7.072;2022-12-07T16:41:24;23.33;;;10.55;;
33716;SDS011;20046;50.746;7.072;2022-12-07T16:43:50;22.55;;;11.18;;
33716;SDS011;20046;50.746;7.072;2022-12-07T16:46:16;20.15;;;11.73;;
33716;SDS011;20046;50.746;7.072;2022-12-07T16:48:42;24.42;;;10.98;;
33716;SDS011;20046;50.746;7.072;2022-12-07T16:51:09;25.48;;;13.82;;